Česky Dansk Deutsch English Español Suomi Français Magyar Italiano Nederlands norsk Polski Português svenska Türkçe

 

Het Weer

Tver (Rusland)

05:00, 28 december 2007 (GMT)

NWNNE
WE
SWSSE
Home            
Tver Moscow / Sheremet'Ye Moscow / Vnukovo Moscow / Domodedovo Velikie Luki Vologda Vitebsk Brjansk St. Peterburg Nizhny Novgorod/Strigino Tot'Ma Tartu/Ulenurme Gomel' Minsk Voronez Loshitsa / Minsk International 1 Lappeenranta Utti Savonlinna Parnu Tallinn Riga Penza

Om een weerknop op uw website of weblog te plaatsen, copieer onderstaande code en plak die in uw pagina. In het eerste vakje staat HTML-code, in het tweede vakje UBB-code.


Add to Google

Details

Wind speed:5 bf, 17.5 kn, 9 m/s, 20.1 miles/h, 32.4 km/h
Wind direction:SSW, 200°
Visibility: 8000 m, 8.0 km, 26247 ft, 5.0 miles
Clouds:Geschlossene Wolkendecke at 1500 ft, 457 m
Het Weer:moderate mist
Temperature:-3°C, 27°F
Gefühlte Temperatur:-11°C, 13°F
Dew-point:-5°C, 23°F
Atmospheric pressure:1031 hPa, 773.3 mmHg, 30.45 inHg, 1.018 atm
Relative humidity:86.0 %
METAR:UUEM 280500Z 20009MPS 8000 BR OVC015 M03/M05 Q1031 NOSIG RMK QFE760

Snelkoppelingen

Actuele weersinformatie van de hele wereld. Voeg locaties toe met het plus (+) symbool. Deze snelkoppelingen kunnen worden toegevoegd aan Google.

Lid van de Technetium groep

website free tracking
StatCounter NetStat W3C Validator

24-10-2020 07:53:21
astro.technetium.be money.technetium.be phote.technetium.be tafeltennistafel.technetium.be www.ligfiets.net